createdAt,value
2019-06-27T00:00:21.151Z,55.87
2019-06-27T00:01:21.151Z,55.96
2019-06-27T00:02:21.158Z,56.59
2019-06-27T00:03:21.130Z,56.09
2019-06-27T00:04:21.118Z,56.68
2019-06-27T00:05:21.140Z,56.49
2019-06-27T00:06:21.095Z,56.49
2019-06-27T00:07:21.107Z,56.56
2019-06-27T00:08:21.083Z,56.56
2019-06-27T00:09:21.057Z,55.96
2019-06-27T00:10:21.072Z,56.16
2019-06-27T00:11:21.042Z,56.26
2019-06-27T00:12:21.047Z,56.16
2019-06-27T00:13:21.057Z,55.27
2019-06-27T00:14:21.007Z,55.89
2019-06-27T00:15:20.997Z,56.19
2019-06-27T00:16:21.069Z,56.29
2019-06-27T00:17:21.003Z,56.38
2019-06-27T00:18:20.967Z,56.59
2019-06-27T00:19:20.953Z,56.61
2019-06-27T00:20:20.965Z,57.01
2019-06-27T00:21:20.935Z,56.98
2019-06-27T00:22:20.955Z,57.01
2019-06-27T00:23:29.472Z,57.01
2019-06-27T00:24:28.449Z,57.01
2019-06-27T00:25:29.823Z,56.74
2019-06-27T00:26:20.882Z,57.04
2019-06-27T00:27:20.867Z,57.14
2019-06-27T00:28:20.883Z,57.34
2019-06-27T00:29:20.854Z,57.43
2019-06-27T00:30:20.838Z,57.64
2019-06-27T00:31:20.827Z,57.24
2019-06-27T00:32:20.815Z,57.76
2019-06-27T00:33:20.910Z,57.93
2019-06-27T00:34:20.801Z,57.86
2019-06-27T00:35:20.810Z,58.26
2019-06-27T00:36:20.775Z,58.26
2019-06-27T00:37:20.776Z,57.96
2019-06-27T00:38:20.766Z,58.45
2019-06-27T00:39:20.745Z,58.45
2019-06-27T00:40:20.784Z,58.26
2019-06-27T00:41:20.740Z,58.65
2019-06-27T00:42:20.709Z,58.28
2019-06-27T00:43:20.734Z,58.48
2019-06-27T00:44:20.691Z,58.09
2019-06-27T00:45:20.682Z,58.26
2019-06-27T00:46:20.680Z,58.28
2019-06-27T00:47:20.654Z,58.18
2019-06-27T00:48:20.647Z,58.48
2019-06-27T00:49:20.660Z,58.48
2019-06-27T00:50:20.657Z,58.28
2019-06-27T00:51:20.620Z,58.39
2019-06-27T00:52:20.603Z,58.41
2019-06-27T00:53:20.585Z,58.31
2019-06-27T00:54:20.596Z,58.81
2019-06-27T00:55:20.601Z,58.61
2019-06-27T00:56:20.573Z,58.81
2019-06-27T00:57:20.561Z,58.81
2019-06-27T00:58:20.534Z,59.21
2019-06-27T00:59:20.557Z,59.31
2019-06-27T01:00:20.529Z,58.71
2019-06-27T01:01:20.527Z,59.04
2019-06-27T01:02:20.492Z,59.83
2019-06-27T01:03:20.507Z,59.04
2019-06-27T01:04:20.498Z,59.34
2019-06-27T01:05:20.458Z,58.94
2019-06-27T01:06:20.451Z,59.14
2019-06-27T01:07:20.453Z,59.31
2019-06-27T01:08:20.431Z,58.94
2019-06-27T01:09:20.437Z,59.44
2019-06-27T01:10:20.433Z,59.74
2019-06-27T01:11:20.450Z,59.53
2019-06-27T01:12:20.389Z,59.53
2019-06-27T01:13:20.377Z,59.83
2019-06-27T01:14:20.382Z,59.53
2019-06-27T01:15:20.351Z,59.44
2019-06-27T01:16:20.334Z,59.66
2019-06-27T01:17:20.328Z,59.77
2019-06-27T01:18:20.319Z,59.96
2019-06-27T01:19:20.315Z,60.16
2019-06-27T01:20:20.316Z,60.36
2019-06-27T01:21:20.288Z,60.46
2019-06-27T01:22:20.271Z,60.66
2019-06-27T01:23:20.267Z,60.26
2019-06-27T01:24:20.254Z,60.46
2019-06-27T01:25:20.260Z,60.26
2019-06-27T01:26:27.771Z,59.86
2019-06-27T01:27:30.360Z,59.77
2019-06-27T01:28:20.203Z,59.96
2019-06-27T01:29:20.195Z,59.74
2019-06-27T01:30:28.930Z,59.47
2019-06-27T01:31:27.729Z,59.66
2019-06-27T01:32:27.708Z,59.77
2019-06-27T01:33:20.151Z,59.77
2019-06-27T01:34:20.141Z,59.86
2019-06-27T01:35:20.186Z,60.16
2019-06-27T01:36:20.134Z,60.26
2019-06-27T01:37:20.110Z,59.89
2019-06-27T01:38:20.098Z,59.96
2019-06-27T01:39:20.089Z,60.09
2019-06-27T01:40:20.097Z,59.99
2019-06-27T01:41:20.070Z,59.96
2019-06-27T01:42:20.069Z,60.46
2019-06-27T01:43:20.055Z,60.09
2019-06-27T01:44:20.058Z,60.09
2019-06-27T01:45:20.063Z,59.89
2019-06-27T01:46:20.020Z,59.89
2019-06-27T01:47:20.008Z,60.19
2019-06-27T01:48:28.570Z,59.99
2019-06-27T01:49:19.987Z,60.09
2019-06-27T01:50:20.007Z,60.19
2019-06-27T01:51:19.963Z,60.09
2019-06-27T01:52:27.508Z,60.09
2019-06-27T01:53:27.522Z,60.09
2019-06-27T01:54:27.039Z,60.22
2019-06-27T01:55:28.685Z,60.29
2019-06-27T01:56:28.740Z,60.29
2019-06-27T01:57:27.442Z,59.89
2019-06-27T01:58:27.462Z,60.22
2019-06-27T01:59:27.460Z,60.09
2019-06-27T02:00:28.893Z,60.22
2019-06-27T02:01:28.896Z,60.22
2019-06-27T02:02:28.444Z,60.12
2019-06-27T02:03:27.926Z,60.32
2019-06-27T02:04:19.816Z,60.32
2019-06-27T02:05:19.848Z,60.42
2019-06-27T02:06:19.793Z,60.52
2019-06-27T02:07:19.784Z,60.42
2019-06-27T02:08:19.792Z,60.52
2019-06-27T02:09:19.765Z,60.52
2019-06-27T02:10:19.801Z,60.22
2019-06-27T02:11:19.746Z,60.82
2019-06-27T02:12:27.282Z,60.55
2019-06-27T02:13:19.723Z,60.25
2019-06-27T02:14:19.718Z,60.42
2019-06-27T02:15:22.121Z,60.45
2019-06-27T02:16:20.555Z,60.22
2019-06-27T02:17:19.675Z,60.15
2019-06-27T02:18:20.512Z,60.15
2019-06-27T02:19:19.695Z,60.15
2019-06-27T02:20:19.717Z,59.95
2019-06-27T02:21:19.655Z,60.17
2019-06-27T02:22:19.755Z,60.25
2019-06-27T02:23:19.619Z,60.17
2019-06-27T02:24:19.610Z,60.38
2019-06-27T02:25:19.638Z,60.58
2019-06-27T02:26:19.751Z,60.38
2019-06-27T02:27:19.573Z,60.58
2019-06-27T02:28:19.560Z,60.58
2019-06-27T02:29:19.549Z,60.48
2019-06-27T02:30:19.537Z,60.48
2019-06-27T02:31:19.544Z,60.38
2019-06-27T02:32:19.550Z,60.48
2019-06-27T02:33:19.514Z,60.48
2019-06-27T02:34:19.497Z,60.38
2019-06-27T02:35:19.489Z,60.28
2019-06-27T02:36:19.599Z,60.71
2019-06-27T02:37:19.460Z,60.80
2019-06-27T02:38:19.452Z,60.58
2019-06-27T02:39:19.459Z,60.80
2019-06-27T02:40:19.428Z,60.58
2019-06-27T02:41:19.423Z,60.68
2019-06-27T02:42:19.428Z,60.58
2019-06-27T02:43:19.397Z,60.68
2019-06-27T02:44:19.382Z,60.58
2019-06-27T02:45:19.389Z,60.68
2019-06-27T02:46:19.403Z,60.78
2019-06-27T02:47:19.370Z,61.10
2019-06-27T02:48:19.343Z,61.00
2019-06-27T02:49:19.436Z,60.80
2019-06-27T02:50:19.319Z,61.10
2019-06-27T02:51:19.315Z,61.10
2019-06-27T02:52:19.346Z,61.10
2019-06-27T02:53:19.293Z,61.21
2019-06-27T02:54:19.285Z,61.10
2019-06-27T02:55:19.269Z,61.00
2019-06-27T02:56:19.260Z,61.10
2019-06-27T02:57:19.275Z,61.21
2019-06-27T02:58:32.111Z,61.04
2019-06-27T02:59:20.228Z,60.80
2019-06-27T03:00:19.295Z,61.21
2019-06-27T03:01:19.214Z,60.80
2019-06-27T03:02:19.226Z,60.91
2019-06-27T03:03:26.866Z,61.13
2019-06-27T03:04:19.182Z,61.13
2019-06-27T03:05:19.166Z,61.43
2019-06-27T03:06:19.159Z,61.24
2019-06-27T03:07:19.190Z,60.93
2019-06-27T03:08:19.144Z,60.93
2019-06-27T03:09:19.114Z,61.04
2019-06-27T03:10:19.111Z,61.54
2019-06-27T03:11:19.092Z,61.63
2019-06-27T03:12:19.163Z,61.73
2019-06-27T03:13:19.071Z,62.04
2019-06-27T03:14:19.093Z,61.73
2019-06-27T03:15:19.134Z,61.41
2019-06-27T03:16:19.038Z,61.41
2019-06-27T03:17:19.057Z,61.54
2019-06-27T03:18:19.058Z,61.54
2019-06-27T03:19:26.576Z,61.73
2019-06-27T03:20:26.550Z,61.93
2019-06-27T03:21:18.996Z,62.37
2019-06-27T03:22:18.975Z,62.56
2019-06-27T03:23:18.995Z,62.70
2019-06-27T03:24:19.059Z,62.66
2019-06-27T03:25:18.945Z,62.29
2019-06-27T03:26:18.938Z,62.79
2019-06-27T03:27:18.939Z,62.70
2019-06-27T03:28:18.932Z,62.79
2019-06-27T03:29:20.450Z,62.99
2019-06-27T03:30:18.894Z,63.92
2019-06-27T03:31:18.887Z,63.62
2019-06-27T03:32:18.897Z,63.42
2019-06-27T03:33:18.897Z,63.32
2019-06-27T03:34:18.856Z,63.32
2019-06-27T03:35:18.852Z,63.32
2019-06-27T03:36:18.823Z,63.92
2019-06-27T03:37:18.826Z,63.12
2019-06-27T03:38:18.826Z,63.12
2019-06-27T03:39:18.839Z,62.92
2019-06-27T03:40:18.790Z,63.32
2019-06-27T03:41:18.766Z,63.22
2019-06-27T03:42:27.580Z,63.62
2019-06-27T03:43:25.834Z,63.65
2019-06-27T03:44:27.829Z,63.65
2019-06-27T03:45:26.282Z,63.56
2019-06-27T03:46:26.340Z,63.65
2019-06-27T03:47:28.158Z,63.56
2019-06-27T03:48:26.792Z,63.22
2019-06-27T03:49:27.504Z,63.45
2019-06-27T03:50:18.705Z,63.25
2019-06-27T03:51:18.663Z,63.53
2019-06-27T03:52:18.648Z,63.25
2019-06-27T03:53:18.637Z,63.53
2019-06-27T03:54:18.638Z,63.72
2019-06-27T03:55:18.639Z,63.45
2019-06-27T03:56:18.608Z,63.85
2019-06-27T03:57:18.596Z,63.75
2019-06-27T03:58:18.622Z,63.45
2019-06-27T03:59:18.573Z,63.32
2019-06-27T04:00:18.584Z,63.82
2019-06-27T04:01:26.142Z,63.22
2019-06-27T04:02:26.163Z,63.12
2019-06-27T04:03:26.567Z,63.62
2019-06-27T04:04:18.518Z,63.12
2019-06-27T04:05:18.535Z,63.62
2019-06-27T04:06:18.517Z,63.82
2019-06-27T04:07:18.526Z,63.22
2019-06-27T04:08:18.501Z,63.35
2019-06-27T04:09:18.513Z,63.85
2019-06-27T04:10:18.518Z,63.85
2019-06-27T04:11:18.443Z,63.92
2019-06-27T04:12:18.445Z,63.62
2019-06-27T04:13:18.446Z,63.75
2019-06-27T04:14:18.460Z,63.56
2019-06-27T04:15:18.419Z,63.45
2019-06-27T04:16:18.400Z,63.53
2019-06-27T04:17:18.407Z,63.35
2019-06-27T04:18:18.376Z,63.35
2019-06-27T04:19:18.396Z,63.62
2019-06-27T04:20:18.397Z,63.82
2019-06-27T04:21:18.345Z,63.56
2019-06-27T04:22:18.325Z,63.45
2019-06-27T04:23:18.316Z,63.56
2019-06-27T04:24:18.317Z,63.45
2019-06-27T04:25:18.323Z,63.56
2019-06-27T04:26:18.336Z,63.42
2019-06-27T04:27:18.269Z,63.65
2019-06-27T04:28:18.266Z,63.15
2019-06-27T04:29:33.105Z,63.85
2019-06-27T04:30:19.231Z,63.82
2019-06-27T04:31:18.264Z,63.06
2019-06-27T04:32:18.237Z,63.65
2019-06-27T04:33:18.225Z,63.65
2019-06-27T04:34:19.744Z,63.56
2019-06-27T04:35:18.185Z,63.45
2019-06-27T04:36:18.297Z,64.15
2019-06-27T04:37:18.152Z,63.89
2019-06-27T04:38:18.142Z,64.25
2019-06-27T04:39:18.136Z,63.78
2019-06-27T04:40:18.127Z,63.78
2019-06-27T04:41:18.133Z,63.78
2019-06-27T04:42:18.153Z,63.39
2019-06-27T04:43:18.087Z,63.98
2019-06-27T04:44:18.083Z,63.48
2019-06-27T04:45:18.073Z,63.89
2019-06-27T04:46:18.056Z,63.68
2019-06-27T04:47:18.044Z,64.28
2019-06-27T04:48:18.053Z,64.09
2019-06-27T04:49:18.026Z,63.98
2019-06-27T04:50:18.014Z,63.48
2019-06-27T04:51:18.028Z,63.48
2019-06-27T04:52:18.027Z,63.28
2019-06-27T04:53:18.004Z,63.08
2019-06-27T04:54:17.992Z,63.15
2019-06-27T04:55:25.585Z,63.18
2019-06-27T04:56:17.968Z,63.65
2019-06-27T04:57:17.964Z,63.75
2019-06-27T04:58:26.918Z,63.45
2019-06-27T04:59:26.510Z,63.68
2019-06-27T05:00:25.495Z,63.35
2019-06-27T05:02:37.253Z,63.95
2019-06-27T05:03:37.213Z,63.15
2019-06-27T05:04:37.208Z,63.39
2019-06-27T05:05:37.240Z,62.88
2019-06-27T05:06:37.180Z,62.95
2019-06-27T05:07:37.187Z,63.25
2019-06-27T05:08:37.167Z,63.68
2019-06-27T05:09:37.185Z,63.56
2019-06-27T05:10:37.141Z,63.68
2019-06-27T05:11:37.132Z,63.18
2019-06-27T05:12:37.155Z,63.58
2019-06-27T05:13:37.105Z,63.25
2019-06-27T05:14:37.094Z,64.18
2019-06-27T05:15:37.085Z,63.98
2019-06-27T05:16:37.074Z,65.09
2019-06-27T05:17:37.084Z,63.85
2019-06-27T05:18:37.051Z,63.75
2019-06-27T05:19:37.044Z,64.06
2019-06-27T05:20:37.033Z,63.15
2019-06-27T05:21:37.023Z,62.85
2019-06-27T05:22:37.030Z,62.82
2019-06-27T05:23:37.005Z,62.42
2019-06-27T05:24:36.989Z,62.32
2019-06-27T05:25:36.986Z,62.52
2019-06-27T05:26:36.966Z,62.95
2019-06-27T05:27:36.973Z,62.95
2019-06-27T05:28:36.943Z,63.25
2019-06-27T05:29:36.935Z,63.35
2019-06-27T05:30:36.923Z,62.65
2019-06-27T05:31:36.915Z,62.82
2019-06-27T05:32:36.919Z,62.75
2019-06-27T05:33:36.895Z,62.42
2019-06-27T05:34:36.882Z,62.12
2019-06-27T05:35:36.870Z,62.22
2019-06-27T05:36:36.859Z,62.52
2019-06-27T05:37:36.867Z,62.15
2019-06-27T05:38:36.834Z,62.75
2019-06-27T05:39:36.825Z,62.75
2019-06-27T05:40:36.818Z,62.75
2019-06-27T05:41:36.803Z,62.75
2019-06-27T05:42:36.927Z,62.85
2019-06-27T05:43:36.784Z,62.45
2019-06-27T05:44:36.777Z,62.55
2019-06-27T05:45:36.759Z,62.22
2019-06-27T05:46:36.755Z,62.52
2019-06-27T05:47:36.739Z,62.12
2019-06-27T05:48:39.713Z,62.22
2019-06-27T05:49:36.722Z,62.22
2019-06-27T05:50:36.708Z,62.02
2019-06-27T05:51:36.698Z,62.02
2019-06-27T05:52:36.688Z,62.45
2019-06-27T05:53:36.692Z,62.35
2019-06-27T05:54:36.668Z,62.15
2019-06-27T05:55:36.657Z,62.45
2019-06-27T05:56:36.644Z,62.55
2019-06-27T05:57:36.633Z,62.35
2019-06-27T05:58:36.724Z,62.55
2019-06-27T05:59:36.614Z,62.45
2019-06-27T06:00:36.599Z,62.55
2019-06-27T06:01:36.603Z,62.85
2019-06-27T06:02:36.579Z,62.65
2019-06-27T06:03:36.585Z,62.75
2019-06-27T06:04:36.579Z,62.75
2019-06-27T06:05:36.544Z,62.15
2019-06-27T06:06:36.542Z,62.35
2019-06-27T06:07:36.591Z,62.65
2019-06-27T06:08:36.519Z,62.82
2019-06-27T06:09:36.522Z,62.55
2019-06-27T06:10:36.495Z,62.85
2019-06-27T06:11:36.494Z,62.45
2019-06-27T06:12:36.473Z,62.22
2019-06-27T06:13:36.462Z,62.25
2019-06-27T06:14:36.491Z,61.85
2019-06-27T06:15:36.437Z,61.92
2019-06-27T06:16:36.431Z,61.95
2019-06-27T06:17:36.417Z,65.52
2019-06-27T06:18:36.408Z,62.29
2019-06-27T06:19:36.397Z,61.32
2019-06-27T06:20:36.406Z,62.32
2019-06-27T06:21:36.377Z,61.40
2019-06-27T06:22:36.366Z,60.89
2019-06-27T06:23:36.354Z,60.69
2019-06-27T06:24:36.347Z,60.59
2019-06-27T06:25:36.351Z,60.66
2019-06-27T06:26:36.319Z,60.27
2019-06-27T06:27:36.311Z,60.36
2019-06-27T06:28:36.301Z,60.27
2019-06-27T06:29:36.294Z,60.16
2019-06-27T06:30:44.422Z,60.06
2019-06-27T06:31:37.267Z,60.03
2019-06-27T06:32:36.258Z,59.94
2019-06-27T06:33:36.252Z,59.04
2019-06-27T06:34:36.235Z,58.94
2019-06-27T06:35:36.243Z,58.24
2019-06-27T06:36:36.229Z,58.61
2019-06-27T06:37:36.206Z,58.94
2019-06-27T06:38:36.194Z,58.81
2019-06-27T06:39:36.189Z,59.01
2019-06-27T06:40:36.216Z,58.91
2019-06-27T06:41:36.166Z,58.91
2019-06-27T06:42:36.152Z,58.81
2019-06-27T06:43:36.139Z,58.81
2019-06-27T06:44:36.136Z,58.64
2019-06-27T06:45:36.119Z,58.94
2019-06-27T06:46:44.974Z,58.73
2019-06-27T06:47:43.669Z,58.76
2019-06-27T06:48:43.700Z,58.86
2019-06-27T06:49:43.670Z,59.27
2019-06-27T06:50:44.727Z,59.59
2019-06-27T06:51:45.421Z,59.69
2019-06-27T06:53:52.283Z,59.79
2019-06-27T06:57:32.813Z,58.99
2019-06-27T06:58:41.385Z,59.86
2019-06-27T06:59:41.379Z,58.99
2019-06-27T07:00:40.905Z,58.99
2019-06-27T07:01:45.620Z,59.99
2019-06-27T07:02:40.322Z,59.59
2019-06-27T07:03:41.329Z,59.36
2019-06-27T07:05:51.460Z,59.36
2019-06-27T07:07:01.718Z,59.47
2019-06-27T07:08:00.270Z,58.67
2019-06-27T07:10:09.244Z,58.86
2019-06-27T07:12:27.031Z,58.37
2019-06-27T07:13:27.020Z,58.56
2019-06-27T07:14:35.830Z,58.97
2019-06-27T07:15:26.980Z,58.67
2019-06-27T07:16:34.553Z,58.56
2019-06-27T07:17:36.768Z,58.56
2019-06-27T07:18:26.939Z,58.86
2019-06-27T07:19:26.934Z,58.86
2019-06-27T07:20:26.933Z,58.76
2019-06-27T07:21:26.908Z,58.76
2019-06-27T07:22:26.976Z,58.76
2019-06-27T07:23:26.901Z,58.86
2019-06-27T07:24:26.880Z,58.76
2019-06-27T07:25:26.878Z,58.67
2019-06-27T07:26:26.890Z,58.67
2019-06-27T07:27:26.865Z,57.97
2019-06-27T07:28:26.836Z,58.34
2019-06-27T07:29:26.844Z,57.84
2019-06-27T07:30:26.812Z,57.84
2019-06-27T07:31:26.827Z,57.84
2019-06-27T07:32:26.815Z,57.76
2019-06-27T07:33:26.795Z,57.87
2019-06-27T07:34:26.793Z,57.64
2019-06-27T07:35:26.757Z,57.74
2019-06-27T07:36:26.747Z,57.74
2019-06-27T07:37:26.765Z,57.34
2019-06-27T07:38:26.735Z,57.34
2019-06-27T07:39:26.721Z,57.04
2019-06-27T07:40:26.713Z,57.24
2019-06-27T07:41:26.693Z,56.74
2019-06-27T07:42:35.301Z,57.34
2019-06-27T07:43:35.283Z,57.44
2019-06-27T07:45:44.514Z,57.24
2019-06-27T07:46:53.217Z,57.31
2019-06-27T07:47:44.490Z,56.94
2019-06-27T07:48:44.458Z,56.81
2019-06-27T07:49:52.014Z,56.91
2019-06-27T07:50:52.017Z,56.71
2019-06-27T07:51:52.094Z,56.71
2019-06-27T07:52:54.474Z,56.41
2019-06-27T07:53:44.397Z,56.91
2019-06-27T07:54:52.072Z,56.91
2019-06-27T07:55:51.577Z,56.79
2019-06-27T07:56:46.286Z,56.81
2019-06-27T07:57:53.489Z,56.71
2019-06-27T07:58:44.357Z,56.88
2019-06-27T07:59:52.002Z,56.29
2019-06-27T08:00:51.506Z,55.39
2019-06-27T08:01:51.488Z,55.29
2019-06-27T08:02:53.101Z,55.39
2019-06-27T08:03:51.471Z,55.39
2019-06-27T08:04:44.298Z,55.39
2019-06-27T08:05:44.269Z,55.19
2019-06-27T08:06:44.324Z,55.58
2019-06-27T08:07:44.246Z,55.39
2019-06-27T08:08:44.236Z,55.49
2019-06-27T08:09:44.237Z,55.49
2019-06-27T08:10:44.214Z,55.39
2019-06-27T08:11:44.201Z,55.29
2019-06-27T08:12:44.210Z,55.29
2019-06-27T08:13:44.181Z,55.49
2019-06-27T08:14:44.210Z,55.26
2019-06-27T08:15:44.165Z,54.96
2019-06-27T08:16:44.173Z,55.04
2019-06-27T08:17:44.155Z,54.34
2019-06-27T08:18:44.125Z,54.53
2019-06-27T08:19:51.291Z,54.64
2019-06-27T08:20:51.795Z,54.44
2019-06-27T08:21:53.204Z,53.71
2019-06-27T08:22:53.114Z,54.21
2019-06-27T08:23:52.854Z,53.22
2019-06-27T08:24:53.005Z,52.81
2019-06-27T08:25:44.060Z,52.69
2019-06-27T08:26:52.230Z,52.49
2019-06-27T08:27:54.042Z,51.87
2019-06-27T08:28:44.028Z,51.84
2019-06-27T08:29:44.008Z,51.12
2019-06-27T08:30:44.055Z,50.28
2019-06-27T08:31:51.652Z,48.74
2019-06-27T08:32:44.997Z,48.20
2019-06-27T08:33:43.975Z,46.00
2019-06-27T08:34:43.956Z,46.25
2019-06-27T08:35:43.972Z,45.83
2019-06-27T08:36:43.931Z,43.53
2019-06-27T08:37:44.033Z,44.20
2019-06-27T08:38:43.920Z,43.66
2019-06-27T08:39:43.939Z,43.27
2019-06-27T08:40:43.961Z,42.34
2019-06-27T08:41:43.885Z,41.33
2019-06-27T08:42:43.873Z,41.00
2019-06-27T08:43:43.880Z,40.19
2019-06-27T08:44:43.876Z,39.48
2019-06-27T08:45:51.540Z,39.50
2019-06-27T08:46:43.844Z,39.40
2019-06-27T08:47:43.817Z,39.39
2019-06-27T08:48:43.893Z,39.26
2019-06-27T08:49:51.005Z,39.26
2019-06-27T08:50:51.481Z,38.56
2019-06-27T08:51:43.815Z,38.03
2019-06-27T08:52:43.775Z,37.13
2019-06-27T08:53:43.791Z,36.91
2019-06-27T08:54:43.813Z,36.51
2019-06-27T08:55:43.740Z,35.60
2019-06-27T08:56:43.769Z,36.09
2019-06-27T08:57:43.715Z,36.39
2019-06-27T08:58:43.779Z,35.47
2019-06-27T08:59:43.695Z,35.08
2019-06-27T09:00:45.988Z,34.86
2019-06-27T09:01:43.728Z,34.38
2019-06-27T09:02:43.667Z,33.75
2019-06-27T09:03:43.685Z,33.46
2019-06-27T09:04:43.672Z,33.07
2019-06-27T09:05:43.635Z,33.45
2019-06-27T09:06:43.675Z,33.41
2019-06-27T09:07:43.673Z,33.14
2019-06-27T09:08:43.627Z,33.04
2019-06-27T09:09:43.610Z,33.12
2019-06-27T09:10:43.601Z,33.11
2019-06-27T09:11:43.598Z,32.21
2019-06-27T09:12:43.569Z,32.09
2019-06-27T09:13:43.581Z,32.01
2019-06-27T09:14:43.570Z,31.70
2019-06-27T09:15:43.539Z,31.20
2019-06-27T09:16:46.548Z,31.28
2019-06-27T09:17:43.546Z,31.17
2019-06-27T09:18:43.561Z,30.78
2019-06-27T09:19:43.503Z,30.78
2019-06-27T09:20:43.494Z,31.17
2019-06-27T09:21:43.497Z,31.28
2019-06-27T09:22:43.527Z,31.10
2019-06-27T09:23:43.495Z,31.40
2019-06-27T09:24:43.463Z,32.18
2019-06-27T09:25:43.466Z,30.99
2019-06-27T09:26:43.454Z,30.58
2019-06-27T09:27:43.477Z,30.98
2019-06-27T09:28:43.419Z,30.18
2019-06-27T09:29:43.425Z,29.39
2019-06-27T09:30:43.452Z,29.39
2019-06-27T09:31:43.387Z,29.42
2019-06-27T09:32:43.381Z,30.41
2019-06-27T09:33:43.372Z,30.60
2019-06-27T09:34:43.389Z,30.41
2019-06-27T09:35:43.353Z,30.74
2019-06-27T09:36:43.360Z,31.67
2019-06-27T09:37:43.334Z,32.24
2019-06-27T09:38:43.327Z,31.65
2019-06-27T09:39:43.341Z,31.39
2019-06-27T09:40:43.309Z,31.87
2019-06-27T09:41:43.326Z,32.16
2019-06-27T09:42:43.310Z,31.38
2019-06-27T09:43:43.335Z,31.46
2019-06-27T09:44:43.320Z,31.25
2019-06-27T09:45:43.428Z,30.93
2019-06-27T09:46:43.278Z,30.42
2019-06-27T09:47:43.241Z,29.42
2019-06-27T09:48:43.256Z,29.42
2019-06-27T09:49:43.223Z,29.60
2019-06-27T09:50:43.233Z,29.30
2019-06-27T09:51:43.224Z,28.90
2019-06-27T09:52:43.200Z,28.70
2019-06-27T09:53:43.189Z,29.32
2019-06-27T09:54:43.180Z,28.64
2019-06-27T09:55:43.188Z,29.74
2019-06-27T09:56:43.182Z,30.26
2019-06-27T09:57:43.161Z,31.04
2019-06-27T09:58:43.146Z,30.74
2019-06-27T09:59:43.137Z,31.15
2019-06-27T10:00:43.146Z,30.77
2019-06-27T10:01:43.117Z,30.48
2019-06-27T10:02:43.139Z,31.57
2019-06-27T10:03:43.099Z,31.29
2019-06-27T10:04:43.140Z,31.29
2019-06-27T10:05:43.082Z,32.19
2019-06-27T10:06:43.091Z,32.30
2019-06-27T10:07:43.080Z,32.04
2019-06-27T10:08:43.072Z,33.25
2019-06-27T10:09:43.046Z,33.38
2019-06-27T10:10:43.057Z,34.00
2019-06-27T10:11:43.027Z,33.10
2019-06-27T10:12:43.467Z,33.48
2019-06-27T10:13:43.022Z,33.08
2019-06-27T10:14:43.069Z,32.78
2019-06-27T10:15:42.997Z,32.98
2019-06-27T10:16:42.982Z,33.36
2019-06-27T10:17:42.973Z,33.05
2019-06-27T10:18:42.963Z,31.96
2019-06-27T10:19:42.957Z,32.25
2019-06-27T10:20:42.985Z,32.07
2019-06-27T10:21:42.933Z,31.89
2019-06-27T10:22:42.933Z,33.51
2019-06-27T10:23:42.918Z,33.34
2019-06-27T10:24:42.909Z,34.66
2019-06-27T10:25:42.914Z,35.03
2019-06-27T10:26:42.902Z,34.13
2019-06-27T10:27:42.876Z,33.84
2019-06-27T10:28:42.866Z,34.51
2019-06-27T10:29:42.858Z,33.53
2019-06-27T10:30:42.866Z,32.92
2019-06-27T10:31:42.837Z,33.29
2019-06-27T10:32:57.866Z,33.08
2019-06-27T10:33:43.875Z,32.81
2019-06-27T10:34:42.817Z,33.02
2019-06-27T10:35:42.839Z,33.25
2019-06-27T10:36:42.790Z,33.84
2019-06-27T10:37:42.782Z,34.64
2019-06-27T10:38:42.794Z,33.87
2019-06-27T10:39:42.769Z,33.65
2019-06-27T10:40:42.767Z,33.86
2019-06-27T10:41:42.762Z,33.46
2019-06-27T10:42:42.728Z,33.05
2019-06-27T10:43:42.721Z,33.34
2019-06-27T10:44:42.774Z,33.65
2019-06-27T10:45:42.713Z,33.95
2019-06-27T10:46:42.727Z,33.75
2019-06-27T10:47:42.685Z,33.26
2019-06-27T10:48:42.663Z,33.54
2019-06-27T10:49:42.672Z,33.54
2019-06-27T10:50:42.685Z,33.05
2019-06-27T10:51:42.631Z,33.05
2019-06-27T10:52:42.629Z,33.33
2019-06-27T10:53:42.611Z,32.93
2019-06-27T10:54:42.602Z,32.54
2019-06-27T10:55:42.617Z,32.84
2019-06-27T10:56:42.605Z,32.45
2019-06-27T10:57:42.572Z,32.26
2019-06-27T10:58:42.563Z,32.45
2019-06-27T10:59:42.551Z,31.95
2019-06-27T11:00:42.540Z,31.57
2019-06-27T11:01:42.584Z,31.97
2019-06-27T11:02:42.520Z,32.95
2019-06-27T11:03:42.516Z,32.36
2019-06-27T11:04:42.499Z,31.16
2019-06-27T11:05:42.488Z,31.66
2019-06-27T11:06:42.478Z,31.97
2019-06-27T11:07:42.503Z,31.16
2019-06-27T11:08:42.459Z,31.38
2019-06-27T11:09:42.452Z,31.38
2019-06-27T11:10:42.436Z,31.56
2019-06-27T11:11:42.427Z,31.26
2019-06-27T11:12:44.940Z,31.57
2019-06-27T11:13:57.861Z,31.67
2019-06-27T11:14:58.231Z,31.39
2019-06-27T11:15:43.389Z,31.39
2019-06-27T11:16:42.375Z,31.10
2019-06-27T11:17:42.385Z,31.48
2019-06-27T11:18:42.426Z,30.77
2019-06-27T11:19:51.843Z,30.47
2019-06-27T11:20:43.344Z,30.58
2019-06-27T11:21:42.330Z,30.97
2019-06-27T11:22:42.344Z,30.68
2019-06-27T11:23:42.304Z,30.97
2019-06-27T11:24:42.292Z,30.38
2019-06-27T11:25:42.318Z,29.68
2019-06-27T11:26:42.273Z,29.97
2019-06-27T11:27:42.277Z,30.07
2019-06-27T11:28:42.292Z,30.77
2019-06-27T11:29:42.243Z,30.59
2019-06-27T11:30:42.237Z,31.67
2019-06-27T11:31:42.265Z,31.28
2019-06-27T11:32:42.210Z,30.69
2019-06-27T11:33:42.225Z,30.18
2019-06-27T11:34:42.300Z,30.68
2019-06-27T11:35:42.279Z,30.58
2019-06-27T11:36:42.199Z,30.47
2019-06-27T11:37:42.283Z,29.79
2019-06-27T11:38:42.246Z,29.69
2019-06-27T11:39:42.147Z,29.89
2019-06-27T11:40:42.173Z,30.47
2019-06-27T11:41:42.117Z,30.07
2019-06-27T11:42:42.102Z,30.07
2019-06-27T11:43:42.117Z,29.87
2019-06-27T11:44:42.082Z,29.87
2019-06-27T11:45:42.090Z,29.19
2019-06-27T11:46:42.068Z,28.89
2019-06-27T11:47:42.061Z,30.36
2019-06-27T11:48:42.043Z,29.77
2019-06-27T11:49:52.042Z,30.25
2019-06-27T11:50:42.028Z,29.55
2019-06-27T11:51:42.049Z,30.05
2019-06-27T11:52:42.016Z,30.05
2019-06-27T11:53:41.989Z,29.86
2019-06-27T11:54:42.046Z,29.79
2019-06-27T11:55:42.090Z,30.49
2019-06-27T11:56:42.133Z,30.28
2019-06-27T11:57:41.990Z,30.58
2019-06-27T11:58:41.939Z,29.71
2019-06-27T11:59:41.969Z,30.08
2019-06-27T12:00:41.925Z,29.30
2019-06-27T12:01:41.915Z,29.10
2019-06-27T12:02:41.942Z,28.91
2019-06-27T12:03:49.521Z,29.49
2019-06-27T12:04:42.902Z,29.49
2019-06-27T12:05:41.903Z,28.59
2019-06-27T12:06:41.855Z,29.77
2019-06-27T12:07:41.893Z,29.09
2019-06-27T12:08:41.838Z,28.89
2019-06-27T12:09:41.839Z,28.39
2019-06-27T12:10:41.817Z,28.58
2019-06-27T12:11:41.802Z,28.40
2019-06-27T12:12:41.788Z,29.11
2019-06-27T12:13:41.851Z,29.31
2019-06-27T12:14:41.854Z,29.41
2019-06-27T12:15:41.779Z,29.41
2019-06-27T12:16:41.755Z,29.11
2019-06-27T12:17:41.738Z,29.11
2019-06-27T12:18:41.728Z,29.00
2019-06-27T12:19:41.745Z,29.68
2019-06-27T12:20:41.723Z,28.11
2019-06-27T12:21:41.695Z,28.40
2019-06-27T12:22:41.705Z,28.58
2019-06-27T12:23:41.693Z,28.11
2019-06-27T12:24:41.672Z,28.69
2019-06-27T12:25:41.725Z,28.20
2019-06-27T12:26:41.695Z,28.11
2019-06-27T12:27:41.635Z,28.20
2019-06-27T12:28:41.623Z,28.19
2019-06-27T12:29:41.614Z,28.19
2019-06-27T12:30:41.646Z,27.81
2019-06-27T12:31:41.605Z,28.20
2019-06-27T12:32:51.576Z,28.30
2019-06-27T12:33:42.569Z,28.50
2019-06-27T12:34:41.566Z,28.41
2019-06-27T12:35:41.611Z,28.91
2019-06-27T12:36:41.566Z,27.94
2019-06-27T12:37:41.547Z,28.42
2019-06-27T12:38:41.519Z,28.72
2019-06-27T12:39:41.509Z,28.52
2019-06-27T12:40:41.497Z,28.12
2019-06-27T12:41:41.511Z,27.92
2019-06-27T12:42:41.477Z,27.72
2019-06-27T12:43:41.487Z,27.91
2019-06-27T12:44:41.455Z,27.81
2019-06-27T12:45:41.468Z,27.42
2019-06-27T12:46:41.468Z,27.99
2019-06-27T12:47:41.423Z,27.31
2019-06-27T12:48:41.413Z,27.70
2019-06-27T12:50:00.662Z,27.12
2019-06-27T12:50:42.392Z,26.81
2019-06-27T12:51:41.399Z,27.32
2019-06-27T12:52:41.372Z,26.92
2019-06-27T12:53:41.360Z,26.52
2019-06-27T12:54:41.348Z,26.14
2019-06-27T12:55:41.356Z,26.24
2019-06-27T12:56:41.360Z,25.94
2019-06-27T12:57:41.320Z,25.84
2019-06-27T12:58:41.309Z,25.94
2019-06-27T12:59:41.303Z,26.34
2019-06-27T13:00:41.288Z,26.04
2019-06-27T13:01:41.455Z,26.34
2019-06-27T13:02:41.290Z,26.04